Time;durP1;ratioP1;P1;durP2;ratioP2;P2;SDS_P1;SDS_P2;PMS_P1;PMS_P2;Temp;Humidity;BMP_temperature;BMP_pressure;BME280_temperature;BME280_humidity;BME280_pressure;Samples;Min_cycle;Max_cycle;Signal;HPM_P1;HPM_P2
2022/05/13 00:01:56;;;;;;;6.43;4.47;;;12.10;99.90;;;;;;5076668;28;20028;-45
2022/05/13 00:04:22;;;;;;;8.05;4.57;;;12.00;99.90;;;;;;5052560;28;20033;-45
2022/05/13 00:06:47;;;;;;;9.05;4.47;;;12.00;99.90;;;;;;5052263;28;20025;-47
2022/05/13 00:09:13;;;;;;;6.50;5.00;;;12.00;99.90;;;;;;5060865;28;20055;-46
2022/05/13 00:11:39;;;;;;;8.40;5.00;;;11.90;99.90;;;;;;5067615;28;20029;-45
2022/05/13 00:14:06;;;;;;;10.00;4.93;;;11.90;99.90;;;;;;5068314;28;20466;-45
2022/05/13 00:16:35;;;;;;;11.10;5.55;;;11.90;99.90;;;;;;5072118;28;20054;-45
2022/05/13 00:19:01;;;;;;;8.50;4.82;;;11.90;99.90;;;;;;5072326;28;20039;-45
2022/05/13 00:21:27;;;;;;;6.78;4.63;;;11.80;99.90;;;;;;5072428;28;20035;-45
2022/05/13 00:23:52;;;;;;;13.43;5.70;;;11.70;99.90;;;;;;5057545;28;20490;-45
2022/05/13 00:26:18;;;;;;;8.52;5.38;;;11.80;99.90;;;;;;5052327;28;20033;-45
2022/05/13 00:28:44;;;;;;;7.28;4.80;;;11.70;99.90;;;;;;5052149;28;20083;-44
2022/05/13 00:31:10;;;;;;;9.05;5.55;;;11.70;99.90;;;;;;5076651;28;20543;-44
2022/05/13 00:33:36;;;;;;;11.00;6.13;;;11.60;99.90;;;;;;5090377;28;20078;-44
2022/05/13 00:36:01;;;;;;;10.30;5.60;;;11.60;99.90;;;;;;5090904;28;20040;-48
2022/05/13 00:38:27;;;;;;;9.25;6.22;;;11.60;99.90;;;;;;5092221;28;20374;-45
2022/05/13 00:40:53;;;;;;;9.52;6.18;;;11.60;99.90;;;;;;5092127;28;20032;-45
2022/05/13 00:43:57;;;;;;;7.88;5.97;;;11.50;99.90;;;;;;5091887;28;20024;-45
2022/05/13 00:46:24;;;;;;;10.23;5.60;;;11.50;99.90;;;;;;5071553;28;20024;-46
2022/05/13 00:48:50;;;;;;;10.00;5.53;;;11.50;99.90;;;;;;5080718;28;20028;-45
2022/05/13 00:51:23;;;;;;;9.35;6.28;;;11.40;99.90;;;;;;5060349;28;20375;-45
2022/05/13 00:53:49;;;;;;;9.93;6.47;;;11.40;99.90;;;;;;5050800;28;20390;-45
2022/05/13 00:56:15;;;;;;;9.30;6.35;;;11.40;99.90;;;;;;5051419;28;20029;-45
2022/05/13 00:58:45;;;;;;;13.30;7.38;;;11.30;99.90;;;;;;5050455;28;20513;-45
2022/05/13 01:01:11;;;;;;;10.97;6.80;;;11.20;99.90;;;;;;5069822;28;20089;-45
2022/05/13 01:03:37;;;;;;;7.65;6.18;;;11.10;99.90;;;;;;5070520;28;20032;-45
2022/05/13 01:06:06;;;;;;;10.52;6.07;;;11.10;99.90;;;;;;5071234;28;20021;-46
2022/05/13 01:08:35;;;;;;;11.10;6.80;;;11.10;99.90;;;;;;5070798;28;20028;-44
2022/05/13 01:11:04;;;;;;;8.73;6.22;;;11.00;99.90;;;;;;5071451;28;20033;-45
2022/05/13 01:13:31;;;;;;;11.02;6.60;;;10.90;99.90;;;;;;5051834;28;20044;-45
2022/05/13 01:15:57;;;;;;;11.80;6.80;;;10.90;99.90;;;;;;5050881;28;20052;-45
2022/05/13 01:18:33;;;;;;;7.18;6.38;;;10.90;99.90;;;;;;5050908;28;20609;-45
2022/05/13 01:21:00;;;;;;;12.02;7.47;;;10.90;99.90;;;;;;5057998;28;20036;-45
2022/05/13 01:23:32;;;;;;;11.02;6.53;;;10.90;99.90;;;;;;5069811;28;20034;-45
2022/05/13 01:26:06;;;;;;;9.15;6.43;;;10.80;99.90;;;;;;5070710;28;20029;-45
2022/05/13 01:28:38;;;;;;;7.80;5.75;;;10.80;99.90;;;;;;5064564;28;20051;-45
2022/05/13 01:31:07;;;;;;;12.63;6.30;;;10.90;99.90;;;;;;5074772;28;20111;-45
2022/05/13 01:33:34;;;;;;;9.73;6.88;;;10.90;99.90;;;;;;5089898;28;20082;-44
2022/05/13 01:36:01;;;;;;;9.52;5.95;;;10.80;99.90;;;;;;5077362;28;20036;-44
2022/05/13 01:38:30;;;;;;;10.52;5.55;;;10.80;99.90;;;;;;5053092;28;20045;-45
2022/05/13 01:40:56;;;;;;;16.15;6.35;;;10.80;99.90;;;;;;5069998;28;20533;-45
2022/05/13 01:43:23;;;;;;;14.23;5.57;;;10.90;99.90;;;;;;5049970;28;20028;-44
2022/05/13 01:45:49;;;;;;;10.48;6.00;;;10.90;99.90;;;;;;5050237;28;20025;-45
2022/05/13 01:48:15;;;;;;;11.32;5.30;;;11.00;99.90;;;;;;5050548;28;20014;-45
2022/05/13 01:50:41;;;;;;;9.85;5.85;;;10.90;99.90;;;;;;5050434;28;20108;-44
2022/05/13 01:53:07;;;;;;;9.10;5.88;;;10.90;99.90;;;;;;5048473;28;20121;-44
2022/05/13 01:55:33;;;;;;;12.23;5.95;;;10.80;99.90;;;;;;5050683;28;20306;-45
2022/05/13 01:57:59;;;;;;;9.35;5.57;;;10.80;99.90;;;;;;5050746;28;20053;-45
2022/05/13 02:00:26;;;;;;;8.15;5.50;;;10.80;99.90;;;;;;5069496;28;20036;-45
2022/05/13 02:05:36;;;;;;;11.27;6.25;;;10.90;99.90;;;;;;5070275;28;20031;-44
2022/05/13 02:08:03;;;;;;;9.43;5.60;;;10.90;99.90;;;;;;5070034;28;20506;-45
2022/05/13 02:10:29;;;;;;;11.13;6.75;;;10.90;99.90;;;;;;5067273;28;20044;-45
2022/05/13 02:12:56;;;;;;;8.43;6.22;;;10.90;99.90;;;;;;5051975;28;20320;-44
2022/05/13 02:15:21;;;;;;;13.15;5.93;;;10.90;99.90;;;;;;5049554;28;20099;-45
2022/05/13 02:17:47;;;;;;;10.07;6.35;;;10.90;99.90;;;;;;5050289;28;20032;-44
2022/05/13 02:20:13;;;;;;;12.40;6.53;;;10.90;99.90;;;;;;5051089;28;20616;-45
2022/05/13 02:22:38;;;;;;;9.50;6.13;;;11.00;99.90;;;;;;5069077;28;20046;-48
2022/05/13 02:25:05;;;;;;;8.27;6.07;;;11.00;99.90;;;;;;5069621;28;20017;-46
2022/05/13 02:27:31;;;;;;;10.60;6.20;;;11.00;99.90;;;;;;5069590;28;20474;-45
2022/05/13 02:29:56;;;;;;;11.35;5.90;;;11.00;99.90;;;;;;5063853;28;20039;-45
2022/05/13 02:32:22;;;;;;;7.75;6.22;;;11.00;99.90;;;;;;5077326;28;20105;-47
2022/05/13 02:34:47;;;;;;;9.77;6.60;;;11.00;99.90;;;;;;5069886;28;20108;-45
2022/05/13 02:37:13;;;;;;;7.90;7.00;;;11.10;99.90;;;;;;5069926;28;20470;-44
2022/05/13 02:39:39;;;;;;;12.93;8.32;;;11.00;99.90;;;;;;5057072;28;20060;-45
2022/05/13 02:42:05;;;;;;;15.55;8.60;;;11.10;99.90;;;;;;5057581;28;20468;-45
2022/05/13 02:44:30;;;;;;;19.73;12.70;;;11.10;99.90;;;;;;5058655;28;20062;-45
2022/05/13 02:46:56;;;;;;;22.73;12.88;;;11.20;99.90;;;;;;5051496;28;20020;-45
2022/05/13 02:49:22;;;;;;;18.35;12.13;;;11.30;99.90;;;;;;5058817;28;20036;-45
2022/05/13 02:51:48;;;;;;;19.35;12.30;;;11.30;99.90;;;;;;5059219;28;20044;-45
2022/05/13 02:54:14;;;;;;;18.20;12.07;;;11.30;99.90;;;;;;5053574;28;20475;-44
2022/05/13 02:56:39;;;;;;;19.45;13.43;;;11.30;99.90;;;;;;5049309;28;20060;-44
2022/05/13 02:59:05;;;;;;;21.35;12.35;;;11.40;99.90;;;;;;5049721;28;20028;-45
2022/05/13 03:01:32;;;;;;;16.90;11.88;;;11.40;99.90;;;;;;5078874;28;20028;-45
2022/05/13 03:03:58;;;;;;;15.50;11.20;;;11.40;99.90;;;;;;5068855;28;20074;-44
2022/05/13 03:06:24;;;;;;;14.93;12.00;;;11.50;99.90;;;;;;5057415;28;20462;-44
2022/05/13 03:08:51;;;;;;;14.27;10.82;;;11.50;99.90;;;;;;5050257;28;20263;-45
2022/05/13 03:11:17;;;;;;;17.63;11.90;;;11.60;99.90;;;;;;5066630;28;20327;-37
2022/05/13 03:13:43;;;;;;;14.90;11.63;;;11.60;99.90;;;;;;5056866;28;20100;-37
2022/05/13 03:16:11;;;;;;;16.48;12.10;;;11.70;99.90;;;;;;5057816;28;20306;-37
2022/05/13 03:18:40;;;;;;;16.27;11.38;;;11.70;99.90;;;;;;5052816;28;20052;-37
2022/05/13 03:21:06;;;;;;;18.95;12.00;;;11.80;99.90;;;;;;5048534;28;20104;-37
2022/05/13 03:23:32;;;;;;;21.02;13.23;;;11.80;99.90;;;;;;5047293;28;20024;-37
2022/05/13 03:25:58;;;;;;;21.05;13.82;;;11.80;99.90;;;;;;5047304;28;20138;-37
2022/05/13 03:28:24;;;;;;;20.95;13.07;;;11.80;99.90;;;;;;5049279;28;20360;-37
2022/05/13 03:30:50;;;;;;;15.05;11.98;;;11.80;99.90;;;;;;5070758;28;20025;-37
2022/05/13 03:33:17;;;;;;;17.27;12.13;;;11.80;99.90;;;;;;5085580;28;20390;-37
2022/05/13 03:35:43;;;;;;;16.48;12.20;;;11.70;99.90;;;;;;5087424;28;20031;-37
2022/05/13 03:38:08;;;;;;;15.55;11.38;;;11.80;99.90;;;;;;5084950;28;20028;-37
2022/05/13 03:40:35;;;;;;;20.58;13.93;;;11.80;99.90;;;;;;5058296;28;20221;-37
2022/05/13 03:43:02;;;;;;;14.23;12.40;;;11.80;99.90;;;;;;5047727;28;20032;-37
2022/05/13 03:45:30;;;;;;;17.23;12.43;;;11.70;99.90;;;;;;5048184;28;20524;-37
2022/05/13 03:47:55;;;;;;;19.33;12.82;;;11.70;99.90;;;;;;5049257;28;20433;-37
2022/05/13 03:50:21;;;;;;;15.27;12.27;;;11.70;99.90;;;;;;5068571;28;20013;-37
2022/05/13 03:52:47;;;;;;;20.42;12.85;;;11.80;99.90;;;;;;5067629;28;20100;-37
2022/05/13 03:55:13;;;;;;;16.15;12.23;;;11.80;99.90;;;;;;5067062;28;20020;-37
2022/05/13 03:57:39;;;;;;;20.90;13.35;;;11.80;99.90;;;;;;5068833;28;20029;-37
2022/05/13 04:00:07;;;;;;;21.13;12.95;;;11.80;99.90;;;;;;5070224;28;20028;-37
2022/05/13 04:02:32;;;;;;;22.63;14.27;;;11.80;99.90;;;;;;5079478;28;20110;-37
2022/05/13 04:10:26;;;;;;;15.05;11.55;;;11.80;99.90;;;;;;5049338;28;20039;-37
2022/05/13 04:18:20;;;;;;;25.63;13.57;;;11.90;99.90;;;;;;5048505;28;20083;-37
2022/05/13 04:20:47;;;;;;;18.33;12.98;;;11.90;99.90;;;;;;5046876;28;20586;-37
2022/05/13 04:23:14;;;;;;;19.02;11.95;;;12.00;99.90;;;;;;5047858;28;20041;-37
2022/05/13 04:25:40;;;;;;;17.80;13.07;;;12.00;99.90;;;;;;5048115;28;20048;-45
2022/05/13 04:28:06;;;;;;;20.40;13.80;;;12.00;99.90;;;;;;5048231;28;20467;-37
2022/05/13 04:30:31;;;;;;;17.63;13.18;;;12.00;99.90;;;;;;5067185;28;20025;-37
2022/05/13 04:32:57;;;;;;;15.90;11.60;;;12.10;99.90;;;;;;5082267;28;20032;-40
2022/05/13 04:35:22;;;;;;;15.52;10.98;;;12.10;99.90;;;;;;5078701;28;20032;-37
2022/05/13 04:37:48;;;;;;;15.98;11.93;;;12.10;99.90;;;;;;5064546;28;20195;-37
2022/05/13 04:40:13;;;;;;;17.27;10.70;;;12.10;99.90;;;;;;5062248;28;20115;-37
2022/05/13 04:42:51;;;;;;;20.63;12.63;;;12.20;99.90;;;;;;5059819;28;20037;-37
2022/05/13 04:45:29;;;;;;;20.65;13.13;;;12.20;99.90;;;;;;5054042;28;20033;-37
2022/05/13 04:48:16;;;;;;;17.33;12.60;;;12.20;99.90;;;;;;5051704;28;20402;-37
2022/05/13 04:50:58;;;;;;;18.42;12.35;;;12.20;99.90;;;;;;5062774;28;20108;-37
2022/05/13 04:53:29;;;;;;;14.93;11.95;;;12.20;99.90;;;;;;5055194;28;20061;-37
2022/05/13 04:55:56;;;;;;;22.90;12.00;;;12.30;99.90;;;;;;5052925;28;20017;-37
2022/05/13 04:58:22;;;;;;;14.98;11.20;;;12.40;99.90;;;;;;5052351;28;20498;-38
2022/05/13 05:00:49;;;;;;;12.15;10.18;;;12.50;99.90;;;;;;5074281;28;20043;-37
2022/05/13 05:03:20;;;;;;;15.45;12.20;;;12.50;99.90;;;;;;5064988;28;20033;-37
2022/05/13 05:05:45;;;;;;;18.25;11.65;;;12.60;99.90;;;;;;5060214;28;20143;-37
2022/05/13 05:08:12;;;;;;;17.98;11.35;;;12.60;99.90;;;;;;5065635;28;20029;-37
2022/05/13 05:10:38;;;;;;;12.57;9.77;;;12.70;99.90;;;;;;5057781;28;20039;-45
2022/05/13 05:13:07;;;;;;;17.63;11.00;;;12.80;99.90;;;;;;5061654;28;20602;-45
2022/05/13 05:15:33;;;;;;;13.55;10.85;;;12.80;99.90;;;;;;5066111;28;20034;-45
2022/05/13 05:17:59;;;;;;;16.95;11.63;;;12.90;99.90;;;;;;5054505;28;20106;-45
2022/05/13 05:20:24;;;;;;;15.48;11.77;;;12.90;99.90;;;;;;5060179;28;20048;-45
2022/05/13 05:22:50;;;;;;;16.77;10.98;;;12.90;99.90;;;;;;5061177;28;20036;-46
2022/05/13 05:25:18;;;;;;;15.27;11.55;;;12.80;99.90;;;;;;5059037;28;20025;-45
2022/05/13 05:27:44;;;;;;;16.63;11.93;;;12.90;99.90;;;;;;5064945;28;20076;-44
2022/05/13 05:30:11;;;;;;;14.60;11.38;;;13.00;99.90;;;;;;5056191;28;20048;-46
2022/05/13 05:32:38;;;;;;;15.60;10.27;;;13.10;99.90;;;;;;5069850;28;20016;-45
2022/05/13 05:35:05;;;;;;;18.50;11.32;;;13.10;99.90;;;;;;5064713;28;20031;-45
2022/05/13 05:37:31;;;;;;;15.15;10.95;;;13.20;99.90;;;;;;5075912;28;20405;-44
2022/05/13 05:39:56;;;;;;;17.17;11.15;;;13.20;99.90;;;;;;5092706;28;20047;-45
2022/05/13 05:42:22;;;;;;;15.95;11.32;;;13.30;99.90;;;;;;5066418;28;20029;-45
2022/05/13 05:44:47;;;;;;;16.95;10.95;;;13.40;99.90;;;;;;5052179;28;20037;-45
2022/05/13 05:47:13;;;;;;;16.10;10.43;;;13.40;99.90;;;;;;5051419;28;20418;-44
2022/05/13 05:49:38;;;;;;;18.92;11.05;;;13.50;99.90;;;;;;5052402;28;20025;-43
2022/05/13 05:52:04;;;;;;;15.25;10.50;;;13.50;99.90;;;;;;5069342;28;20031;-43
2022/05/13 05:57:14;;;;;;;17.48;9.52;;;13.70;99.90;;;;;;5072418;28;20028;-44
2022/05/13 05:59:44;;;;;;;13.63;9.40;;;13.80;99.90;;;;;;5070416;28;20033;-44
2022/05/13 06:02:10;;;;;;;13.63;9.50;;;13.90;99.90;;;;;;5075835;28;20063;-44
2022/05/13 06:04:38;;;;;;;12.88;8.52;;;14.10;99.90;;;;;;5054833;28;20157;-46
2022/05/13 06:07:09;;;;;;;11.07;8.40;;;14.20;99.90;;;;;;5068882;28;20025;-45
2022/05/13 06:09:36;;;;;;;15.63;8.45;;;14.40;99.90;;;;;;5071961;28;20390;-45
2022/05/13 06:12:03;;;;;;;19.48;9.10;;;14.40;99.90;;;;;;5075871;28;20021;-47
2022/05/13 06:14:28;;;;;;;16.27;8.90;;;14.40;99.90;;;;;;5057136;28;20016;-46
2022/05/13 06:16:54;;;;;;;14.07;8.40;;;14.40;99.90;;;;;;5063534;28;20393;-44
2022/05/13 06:19:20;;;;;;;15.30;8.73;;;14.50;99.90;;;;;;5070727;28;20417;-47
2022/05/13 06:21:45;;;;;;;18.40;8.85;;;14.50;99.90;;;;;;5067034;28;20040;-44
2022/05/13 06:24:12;;;;;;;15.07;9.20;;;14.70;99.90;;;;;;5068317;28;20040;-45
2022/05/13 06:26:38;;;;;;;17.08;8.20;;;14.50;99.90;;;;;;5068430;28;20111;-45
2022/05/13 06:29:05;;;;;;;10.57;7.65;;;14.60;99.90;;;;;;5048753;28;20474;-45
2022/05/13 06:31:31;;;;;;;14.65;8.18;;;14.70;99.90;;;;;;5078113;28;20009;-44
2022/05/13 06:33:56;;;;;;;13.80;9.00;;;14.60;99.90;;;;;;5052022;28;20029;-44
2022/05/13 06:36:22;;;;;;;12.82;7.95;;;14.70;99.90;;;;;;5050779;28;20204;-47
2022/05/13 06:38:47;;;;;;;16.27;6.75;;;14.70;99.90;;;;;;5069327;28;20505;-45
2022/05/13 06:41:13;;;;;;;15.98;7.65;;;14.70;99.90;;;;;;5069582;28;20029;-45
2022/05/13 06:43:39;;;;;;;13.98;7.50;;;14.80;99.90;;;;;;5068935;28;20025;-36
2022/05/13 06:46:05;;;;;;;10.07;6.97;;;14.80;99.90;;;;;;5069233;28;20217;-37
2022/05/13 06:48:31;;;;;;;11.82;6.63;;;14.80;99.90;;;;;;5050765;28;20041;-36
2022/05/13 06:50:56;;;;;;;11.98;6.30;;;14.90;99.90;;;;;;5066555;28;20071;-36
2022/05/13 06:53:22;;;;;;;10.15;6.68;;;14.80;99.90;;;;;;5060776;28;20033;-37
2022/05/13 06:55:49;;;;;;;13.48;6.60;;;14.80;99.90;;;;;;5049613;28;20116;-37
2022/05/13 06:58:16;;;;;;;10.68;5.95;;;14.70;99.90;;;;;;5049399;28;20049;-37
2022/05/13 07:00:44;;;;;;;12.77;6.43;;;14.70;99.90;;;;;;5070213;28;20517;-37
2022/05/13 07:03:18;;;;;;;9.88;5.82;;;14.70;99.90;;;;;;5073388;28;20495;-37
2022/05/13 07:05:44;;;;;;;10.45;5.70;;;14.60;99.90;;;;;;5068929;28;20025;-37
2022/05/13 07:08:10;;;;;;;18.20;6.10;;;14.60;99.90;;;;;;5068707;28;20032;-37
2022/05/13 07:10:39;;;;;;;11.70;6.35;;;14.70;99.80;;;;;;5052066;28;20067;-37
2022/05/13 07:13:05;;;;;;;7.80;4.85;;;14.80;99.30;;;;;;5056971;28;20017;-39
2022/05/13 07:15:31;;;;;;;19.42;4.80;;;14.80;99.90;;;;;;5069206;28;20028;-38
2022/05/13 07:17:57;;;;;;;11.55;4.68;;;14.80;98.50;;;;;;5068798;28;20020;-37
2022/05/13 07:20:25;;;;;;;14.00;4.82;;;14.90;98.80;;;;;;5061548;28;20558;-37
2022/05/13 07:22:51;;;;;;;9.45;4.93;;;15.00;98.10;;;;;;5048173;28;20021;-37
2022/05/13 07:25:17;;;;;;;7.90;5.00;;;14.90;97.90;;;;;;5048766;28;20025;-37
2022/05/13 07:27:43;;;;;;;11.98;5.15;;;14.90;98.00;;;;;;5048621;28;20140;-37
2022/05/13 07:30:10;;;;;;;6.03;4.85;;;14.80;97.80;;;;;;5062628;28;20281;-37
2022/05/13 07:32:35;;;;;;;14.00;4.65;;;14.80;97.90;;;;;;5063204;28;20035;-44
2022/05/13 07:35:01;;;;;;;6.57;3.75;;;14.80;97.30;;;;;;5067309;28;20020;-37
2022/05/13 07:37:26;;;;;;;12.48;4.55;;;14.90;97.70;;;;;;5067494;28;20078;-37
2022/05/13 07:42:36;;;;;;;16.00;4.53;;;14.90;97.20;;;;;;5051748;28;20035;-37
2022/05/13 07:45:01;;;;;;;6.97;3.67;;;15.00;97.10;;;;;;5067272;28;20111;-38
2022/05/13 07:47:27;;;;;;;8.40;3.38;;;15.20;97.20;;;;;;5066911;28;20037;-38
2022/05/13 07:49:52;;;;;;;10.57;4.93;;;15.40;97.20;;;;;;5049886;28;20025;-37
2022/05/13 07:52:18;;;;;;;9.63;5.18;;;15.60;95.90;;;;;;5064943;28;20071;-37
2022/05/13 07:54:43;;;;;;;15.82;4.88;;;15.80;95.60;;;;;;5068340;28;20028;-38
2022/05/13 07:57:09;;;;;;;14.82;4.63;;;15.90;95.80;;;;;;5068584;28;20039;-37
2022/05/13 08:00:24;;;;;;;13.45;4.28;;;16.30;95.20;;;;;;5071133;28;20055;-38
2022/05/13 08:02:21;;;;;;;13.52;5.40;;;16.40;94.60;;;;;;5078154;28;20280;-38
2022/05/13 08:04:46;;;;;;;11.63;4.85;;;16.90;94.20;;;;;;5088590;28;20293;-39
2022/05/13 08:07:12;;;;;;;9.57;4.75;;;16.90;93.40;;;;;;5088579;28;20027;-43
2022/05/13 08:09:37;;;;;;;13.43;5.28;;;17.00;93.60;;;;;;5078574;28;20124;-38
2022/05/13 08:12:04;;;;;;;11.25;5.72;;;17.30;93.10;;;;;;5071477;28;20035;-38
2022/05/13 08:14:29;;;;;;;12.43;5.18;;;17.70;91.80;;;;;;5053935;28;20017;-37
2022/05/13 08:16:55;;;;;;;12.07;4.75;;;17.70;92.00;;;;;;5051952;28;20395;-38
2022/05/13 08:19:20;;;;;;;9.57;5.70;;;17.70;91.80;;;;;;5052138;28;20332;-37
2022/05/13 08:21:48;;;;;;;10.25;5.15;;;17.80;90.30;;;;;;5051358;28;20497;-37
2022/05/13 08:24:13;;;;;;;8.77;5.53;;;17.70;90.00;;;;;;5052458;28;20102;-37
2022/05/13 08:26:39;;;;;;;13.88;4.82;;;17.70;90.00;;;;;;5052483;28;20060;-38
2022/05/13 08:29:04;;;;;;;10.38;4.97;;;18.40;89.20;;;;;;5052230;28;20033;-38
2022/05/13 08:31:30;;;;;;;11.30;4.57;;;19.30;85.90;;;;;;5081753;28;20355;-38
2022/05/13 08:33:56;;;;;;;10.95;4.50;;;20.40;80.40;;;;;;5091843;28;20428;-38
2022/05/13 08:36:21;;;;;;;14.32;5.13;;;21.40;75.80;;;;;;5092167;28;20027;-38
2022/05/13 08:38:49;;;;;;;9.20;4.10;;;21.90;72.50;;;;;;5085129;28;20104;-38
2022/05/13 08:41:37;;;;;;;11.80;5.00;;;22.20;69.90;;;;;;5071558;28;20393;-36
2022/05/13 08:44:07;;;;;;;15.05;4.75;;;22.70;66.50;;;;;;5057323;28;20494;-38
2022/05/13 08:46:40;;;;;;;8.40;3.83;;;22.40;65.00;;;;;;5051156;28;20033;-38
2022/05/13 08:49:14;;;;;;;11.73;4.35;;;21.70;66.60;;;;;;5051570;28;20260;-38
2022/05/13 08:53:06;;;;;;;9.52;3.95;;;21.70;66.80;;;;;;5049588;28;20025;-37
2022/05/13 08:54:56;;;;;;;10.88;3.83;;;21.80;66.80;;;;;;5051329;28;20093;-37
2022/05/13 08:57:26;;;;;;;9.55;3.63;;;21.30;67.50;;;;;;5051918;28;20029;-37
2022/05/13 08:59:58;;;;;;;7.40;3.15;;;21.60;67.00;;;;;;5065941;28;20024;-37
2022/05/13 09:02:31;;;;;;;10.77;3.47;;;22.00;67.70;;;;;;5082359;28;20024;-38
2022/05/13 09:05:16;;;;;;;8.25;3.80;;;22.60;65.10;;;;;;5091729;28;20517;-38
2022/05/13 09:07:44;;;;;;;6.97;3.45;;;23.00;62.90;;;;;;5089961;28;20509;-37
2022/05/13 09:10:10;;;;;;;13.70;3.47;;;23.00;62.20;;;;;;5070512;28;20119;-37
2022/05/13 09:13:07;;;;;;;16.90;3.45;;;22.20;64.00;;;;;;5070447;28;20526;-37
2022/05/13 09:15:44;;;;;;;11.40;3.65;;;20.90;66.70;;;;;;5062947;28;20096;-37
2022/05/13 09:18:33;;;;;;;12.55;4.03;;;19.80;69.50;;;;;;5050914;28;20033;-37
2022/05/13 09:21:02;;;;;;;10.88;3.78;;;19.60;70.70;;;;;;5049593;28;20013;-37
2022/05/13 09:23:29;;;;;;;11.88;3.55;;;19.40;70.80;;;;;;5060820;28;20056;-37
2022/05/13 09:25:57;;;;;;;9.65;3.17;;;20.10;70.50;;;;;;5069224;28;20537;-37
2022/05/13 09:28:25;;;;;;;10.20;3.65;;;21.20;69.00;;;;;;5069568;28;20021;-37
2022/05/13 09:30:55;;;;;;;10.35;3.08;;;21.70;67.30;;;;;;5072935;28;20017;-37
2022/05/13 09:33:32;;;;;;;11.35;3.22;;;22.60;66.50;;;;;;5070039;28;20032;-37
2022/05/13 09:36:06;;;;;;;12.40;3.85;;;23.80;62.50;;;;;;5070565;28;20555;-37
2022/05/13 09:38:41;;;;;;;7.63;3.50;;;23.60;61.40;;;;;;5070228;28;20066;-37
2022/05/13 09:41:11;;;;;;;8.80;2.95;;;23.20;61.90;;;;;;5070685;28;20024;-37
2022/05/13 09:43:51;;;;;;;8.55;3.30;;;22.90;61.60;;;;;;5059612;28;20046;-37
2022/05/13 09:46:24;;;;;;;;;;;22.00;63.50;;;;;;5051695;28;20048;-36
2022/05/13 09:48:57;;;;;;;10.15;3.30;;;21.20;65.50;;;;;;5070555;28;19905;-36
2022/05/13 09:51:36;;;;;;;11.90;3.20;;;22.00;66.70;;;;;;5051301;28;20196;-37
2022/05/13 09:54:22;;;;;;;12.38;3.25;;;23.40;61.30;;;;;;5050121;28;20544;-37
2022/05/13 09:56:54;;;;;;;9.93;3.72;;;22.90;60.50;;;;;;5050162;28;20033;-37
2022/05/13 09:59:23;;;;;;;9.45;3.60;;;22.50;61.90;;;;;;5053398;28;20036;-36
2022/05/13 10:01:50;;;;;;;10.15;3.28;;;21.40;63.90;;;;;;5081185;28;20020;-36
2022/05/13 10:04:24;;;;;;;7.28;3.05;;;20.70;65.70;;;;;;5090491;28;20453;-36
2022/05/13 10:07:12;;;;;;;6.85;3.17;;;20.00;67.80;;;;;;5090196;28;20021;-36
2022/05/13 10:15:45;;;;;;;9.57;3.75;;;17.70;74.40;;;;;;5070103;28;20063;-36
2022/05/13 10:18:29;;;;;;;11.97;4.50;;;17.40;75.70;;;;;;5068237;28;20044;-36
2022/05/13 10:21:00;;;;;;;10.80;4.20;;;17.20;76.50;;;;;;5069809;28;20019;-36
2022/05/13 10:23:32;;;;;;;9.98;4.30;;;17.00;78.10;;;;;;5060310;28;20363;-36
2022/05/13 10:26:08;;;;;;;10.77;4.30;;;16.90;78.50;;;;;;5049710;28;20021;-37
2022/05/13 10:28:55;;;;;;;9.27;3.40;;;16.80;79.60;;;;;;5048310;28;20017;-37
2022/05/13 10:31:25;;;;;;;12.70;3.95;;;16.90;79.10;;;;;;5075168;28;20063;-37
2022/05/13 10:34:02;;;;;;;11.95;3.63;;;17.80;78.80;;;;;;5048890;28;20021;-37
2022/05/13 10:36:58;;;;;;;10.60;3.90;;;18.30;75.60;;;;;;5049633;28;20033;-37
2022/05/13 10:39:45;;;;;;;9.82;3.30;;;18.70;74.90;;;;;;5049373;28;20049;-37
2022/05/13 10:42:34;;;;;;;11.88;2.70;;;19.50;71.70;;;;;;5067705;28;20097;-37
2022/05/13 10:45:21;;;;;;;9.02;3.35;;;20.30;68.60;;;;;;5049317;28;20098;-38
2022/05/13 10:48:04;;;;;;;9.95;3.30;;;21.30;67.70;;;;;;5047722;28;20083;-37
2022/05/13 10:50:48;;;;;;;8.32;2.92;;;22.40;62.80;;;;;;5048948;28;20082;-38
2022/05/13 10:53:32;;;;;;;8.20;3.25;;;21.70;63.30;;;;;;5064618;28;20270;-37
2022/05/13 10:56:00;;;;;;;8.98;3.00;;;21.30;64.30;;;;;;5068981;28;20036;-37
2022/05/13 10:58:49;;;;;;;8.48;2.83;;;21.00;67.00;;;;;;5069097;28;20343;-38
2022/05/13 11:01:55;;;;;;;8.85;2.97;;;21.40;65.60;;;;;;5075952;28;20036;-37
2022/05/13 11:04:31;;;;;;;8.48;3.10;;;21.20;64.60;;;;;;5086566;28;20028;-37
2022/05/13 11:10:29;;;;;;;9.63;2.60;;;20.30;67.70;;;;;;5050221;28;20036;-37
2022/05/13 11:16:32;;;;;;;6.50;2.33;;;19.60;68.00;;;;;;5059986;28;20039;-38
2022/05/13 11:19:09;;;;;;;10.55;2.67;;;19.50;66.40;;;;;;5066224;28;20040;-37
2022/05/13 11:21:43;;;;;;;6.97;2.40;;;19.40;67.30;;;;;;5067096;28;20037;-37
2022/05/13 11:27:06;;;;;;;9.53;2.97;;;18.80;68.60;;;;;;5068266;28;20043;-45
2022/05/13 11:29:53;;;;;;;8.93;2.67;;;18.60;69.70;;;;;;5061630;28;20036;-46
2022/05/13 11:32:34;;;;;;;7.45;2.95;;;18.60;70.30;;;;;;5068919;28;20040;-46
2022/05/13 11:35:05;;;;;;;;;;;19.00;69.20;;;;;;5055929;28;20016;-45
2022/05/13 11:37:37;;;;;;;5.78;2.70;;;19.50;68.30;;;;;;5049707;28;20285;-45
2022/05/13 11:40:21;;;;;;;11.10;2.75;;;20.00;66.90;;;;;;5046232;28;20021;-45
2022/05/13 11:46:01;;;;;;;8.45;2.00;;;19.80;67.70;;;;;;5045921;28;20044;-46
2022/05/13 11:48:34;;;;;;;4.82;2.10;;;19.40;66.50;;;;;;5045680;28;20169;-44
2022/05/13 11:51:03;;;;;;;3.38;1.80;;;19.00;66.70;;;;;;5044229;28;20059;-45
2022/05/13 11:53:44;;;;;;;9.60;2.30;;;18.70;68.20;;;;;;5044538;28;20553;-44
2022/05/13 11:56:34;;;;;;;9.13;2.78;;;18.60;69.20;;;;;;5046202;28;20533;-44
2022/05/13 11:59:12;;;;;;;7.03;2.85;;;18.40;69.90;;;;;;5049590;28;20042;-45
2022/05/13 12:01:43;;;;;;;7.07;2.45;;;18.30;70.20;;;;;;5067336;28;20029;-45
2022/05/13 12:04:16;;;;;;;8.70;2.30;;;18.60;69.30;;;;;;5065755;28;20028;-44
2022/05/13 12:06:50;;;;;;;8.98;2.88;;;19.40;68.60;;;;;;5064549;28;20021;-44
2022/05/13 12:09:44;;;;;;;4.93;2.00;;;19.80;66.40;;;;;;5064345;28;20375;-45
2022/05/13 12:12:20;;;;;;;7.18;2.58;;;20.00;65.90;;;;;;5064996;28;20052;-45
2022/05/13 12:15:04;;;;;;;7.18;2.33;;;19.40;67.20;;;;;;5063917;28;20020;-45
2022/05/13 12:18:13;;;;;;;5.47;1.85;;;19.20;67.20;;;;;;5063673;28;20021;-46
2022/05/13 12:20:52;;;;;;;8.20;2.20;;;18.90;67.30;;;;;;5064110;28;20071;-45
2022/05/13 12:23:33;;;;;;;4.47;1.95;;;18.60;66.80;;;;;;5065306;28;20198;-45
2022/05/13 12:26:04;;;;;;;3.78;1.92;;;18.40;67.60;;;;;;5065767;28;20036;-47
2022/05/13 12:28:37;;;;;;;9.57;2.28;;;18.30;69.00;;;;;;5046950;28;20029;-43
2022/05/13 12:31:22;;;;;;;7.10;2.00;;;18.30;68.40;;;;;;5071350;28;20035;-45
2022/05/13 12:40:01;;;;;;;7.07;2.30;;;18.10;69.40;;;;;;5061009;28;20041;-45
2022/05/13 12:42:47;;;;;;;6.72;1.95;;;18.00;71.10;;;;;;5048533;28;20059;-46
2022/05/13 12:45:39;;;;;;;8.93;2.30;;;18.20;71.10;;;;;;5045791;28;20025;-45
2022/05/13 12:48:06;;;;;;;9.15;2.17;;;18.30;69.60;;;;;;5044927;28;20057;-47
2022/05/13 12:50:46;;;;;;;10.25;2.38;;;18.40;69.60;;;;;;5045258;28;20021;-46
2022/05/13 12:53:29;;;;;;;7.07;2.03;;;18.60;68.80;;;;;;5045427;28;20367;-46
2022/05/13 12:56:29;;;;;;;4.68;2.13;;;19.00;69.40;;;;;;5047688;28;20178;-45
2022/05/13 12:59:27;;;;;;;8.50;2.45;;;19.40;67.40;;;;;;5055804;28;20048;-45
2022/05/13 13:01:57;;;;;;;6.30;2.00;;;19.70;68.10;;;;;;5070855;28;20461;-46
2022/05/13 13:04:26;;;;;;;7.85;2.45;;;19.60;69.40;;;;;;5067827;28;20049;-45
2022/05/13 13:06:52;;;;;;;4.25;1.92;;;19.80;67.30;;;;;;5049283;28;20128;-45
2022/05/13 13:09:29;;;;;;;6.25;2.13;;;19.80;66.40;;;;;;5048848;28;20124;-45
2022/05/13 13:12:19;;;;;;;8.10;1.83;;;19.70;67.00;;;;;;5048381;28;20405;-45
2022/05/13 13:14:48;;;;;;;4.80;2.53;;;19.50;67.40;;;;;;5048573;28;20475;-45
2022/05/13 13:17:43;;;;;;;9.52;2.63;;;19.40;68.10;;;;;;5065864;28;20036;-47
2022/05/13 13:20:12;;;;;;;8.02;2.38;;;18.60;68.80;;;;;;5068890;28;20032;-45
2022/05/13 13:23:03;;;;;;;8.38;2.70;;;18.60;69.70;;;;;;5054581;28;20048;-44
2022/05/13 13:25:28;;;;;;;;;;;18.80;70.70;;;;;;5063997;28;20513;-45
2022/05/13 13:28:07;;;;;;;7.30;2.35;;;18.90;69.80;;;;;;5068574;28;19913;-45
2022/05/13 13:30:33;;;;;;;7.03;2.80;;;19.20;69.10;;;;;;5070397;28;20286;-46
2022/05/13 13:33:00;;;;;;;8.18;2.88;;;19.40;67.70;;;;;;5077790;28;20474;-45
2022/05/13 13:35:40;;;;;;;4.05;2.42;;;19.40;66.50;;;;;;5068446;28;20401;-45
2022/05/13 13:38:08;;;;;;;5.20;2.35;;;19.60;67.10;;;;;;5062699;28;20537;-47
2022/05/13 13:40:43;;;;;;;5.78;2.13;;;19.20;66.80;;;;;;5053937;28;20120;-44